createdAt,value
2019-02-23T00:01:22.440Z,38.80
2019-02-23T00:03:51.815Z,38.53
2019-02-23T00:06:29.269Z,38.10
2019-02-23T00:08:52.072Z,38.40
2019-02-23T00:11:21.450Z,39.03
2019-02-23T00:13:51.053Z,38.00
2019-02-23T00:16:20.649Z,38.20
2019-02-23T00:18:49.955Z,38.30
2019-02-23T00:21:19.249Z,38.30
2019-02-23T00:23:48.457Z,37.97
2019-02-23T00:26:17.838Z,38.07
2019-02-23T00:28:47.038Z,37.43
2019-02-23T00:31:16.564Z,37.17
2019-02-23T00:33:46.264Z,37.23
2019-02-23T00:36:15.574Z,37.53
2019-02-23T00:38:45.009Z,36.60
2019-02-23T00:41:14.577Z,38.03
2019-02-23T00:43:43.863Z,38.40
2019-02-23T00:46:13.229Z,37.23
2019-02-23T00:48:42.486Z,38.00
2019-02-23T00:51:11.732Z,38.47
2019-02-23T00:53:41.396Z,36.00
2019-02-23T00:56:10.779Z,38.67
2019-02-23T00:58:40.048Z,36.73
2019-02-23T01:01:09.720Z,37.23
2019-02-23T01:03:39.521Z,35.57
2019-02-23T01:06:09.221Z,37.83
2019-02-23T01:08:38.692Z,37.27
2019-02-23T01:11:08.101Z,36.97
2019-02-23T01:13:37.694Z,37.07
2019-02-23T01:16:06.888Z,36.67
2019-02-23T01:18:36.200Z,36.27
2019-02-23T01:21:05.490Z,36.30
2019-02-23T01:23:34.680Z,37.57
2019-02-23T01:26:04.575Z,36.07
2019-02-23T01:28:33.904Z,36.20
2019-02-23T01:31:03.871Z,36.90
2019-02-23T01:33:33.218Z,36.07
2019-02-23T01:36:03.165Z,38.83
2019-02-23T01:38:32.472Z,37.30
2019-02-23T01:41:01.971Z,37.53
2019-02-23T01:43:31.323Z,35.10
2019-02-23T01:46:00.831Z,35.83
2019-02-23T01:48:30.355Z,36.57
2019-02-23T01:50:59.656Z,36.47
2019-02-23T01:53:29.234Z,35.37
2019-02-23T01:55:58.803Z,34.47
2019-02-23T01:58:28.334Z,36.63
2019-02-23T02:00:58.029Z,35.07
2019-02-23T02:03:27.404Z,35.03
2019-02-23T02:05:56.653Z,34.97
2019-02-23T02:08:26.292Z,35.70
2019-02-23T02:10:55.680Z,35.60
2019-02-23T02:13:25.231Z,35.47
2019-02-23T02:15:54.435Z,34.17
2019-02-23T02:18:24.306Z,36.37
2019-02-23T02:20:53.667Z,35.23
2019-02-23T02:23:22.939Z,35.40
2019-02-23T02:25:52.247Z,36.27
2019-02-23T02:28:21.517Z,34.40
2019-02-23T02:30:51.113Z,35.13
2019-02-23T02:33:20.478Z,35.00
2019-02-23T02:35:50.055Z,35.20
2019-02-23T02:38:19.652Z,34.87
2019-02-23T02:40:48.985Z,34.90
2019-02-23T02:43:18.711Z,34.83
2019-02-23T02:45:48.069Z,33.93
2019-02-23T02:48:17.453Z,33.70
2019-02-23T02:50:46.666Z,36.27
2019-02-23T02:53:15.868Z,34.00
2019-02-23T02:55:45.882Z,33.70
2019-02-23T02:58:15.213Z,33.27
2019-02-23T03:00:44.493Z,33.17
2019-02-23T03:03:14.111Z,34.57
2019-02-23T03:05:43.409Z,32.53
2019-02-23T03:08:13.053Z,33.97
2019-02-23T03:10:42.267Z,33.13
2019-02-23T03:13:11.609Z,33.07
2019-02-23T03:15:40.895Z,33.97
2019-02-23T03:18:10.240Z,33.73
2019-02-23T03:20:39.523Z,32.93
2019-02-23T03:23:08.878Z,32.80
2019-02-23T03:25:39.462Z,34.13
2019-02-23T03:28:08.752Z,32.67
2019-02-23T03:30:38.029Z,33.33
2019-02-23T03:33:07.774Z,32.53
2019-02-23T03:35:37.761Z,31.53
2019-02-23T03:38:07.392Z,33.60
2019-02-23T03:40:37.513Z,34.10
2019-02-23T03:43:06.886Z,32.83
2019-02-23T03:45:36.222Z,33.40
2019-02-23T03:48:05.526Z,32.73
2019-02-23T03:50:35.121Z,32.17
2019-02-23T03:53:04.499Z,31.07
2019-02-23T03:55:34.144Z,30.70
2019-02-23T03:58:03.529Z,31.90
2019-02-23T04:00:32.800Z,30.90
2019-02-23T04:03:02.100Z,32.97
2019-02-23T04:05:31.856Z,31.40
2019-02-23T04:08:01.135Z,31.93
2019-02-23T04:10:30.437Z,30.63
2019-02-23T04:13:00.044Z,31.70
2019-02-23T04:15:29.376Z,30.37
2019-02-23T04:17:59.086Z,30.90
2019-02-23T04:20:28.428Z,32.13
2019-02-23T04:22:57.684Z,32.17
2019-02-23T04:25:26.986Z,30.10
2019-02-23T04:27:56.608Z,31.40
2019-02-23T04:30:25.966Z,31.73
2019-02-23T04:32:55.338Z,32.30
2019-02-23T04:35:24.604Z,31.03
2019-02-23T04:37:54.312Z,31.03
2019-02-23T04:40:24.204Z,30.43
2019-02-23T04:42:53.431Z,32.27
2019-02-23T04:45:22.997Z,32.00
2019-02-23T04:47:52.303Z,30.90
2019-02-23T04:50:21.627Z,31.70
2019-02-23T04:52:50.917Z,31.57
2019-02-23T04:55:20.519Z,30.83
2019-02-23T04:57:49.867Z,30.93
2019-02-23T05:00:19.045Z,31.80
2019-02-23T05:02:48.345Z,31.13
2019-02-23T05:05:17.683Z,30.50
2019-02-23T05:07:46.984Z,30.23
2019-02-23T05:10:16.684Z,30.77
2019-02-23T05:12:45.965Z,31.20
2019-02-23T05:15:15.303Z,32.13
2019-02-23T05:17:44.681Z,30.30
2019-02-23T05:20:14.259Z,31.13
2019-02-23T05:22:43.627Z,29.70
2019-02-23T05:25:12.932Z,31.47
2019-02-23T05:27:42.203Z,29.60
2019-02-23T05:30:11.942Z,30.17
2019-02-23T05:32:41.333Z,31.03
2019-02-23T05:35:12.039Z,29.40
2019-02-23T05:37:41.309Z,30.40
2019-02-23T05:40:11.303Z,32.67
2019-02-23T05:42:40.569Z,30.63
2019-02-23T05:45:09.939Z,31.63
2019-02-23T05:47:39.173Z,30.37
2019-02-23T05:50:08.763Z,30.23
2019-02-23T05:52:38.127Z,30.33
2019-02-23T05:55:07.656Z,30.80
2019-02-23T05:57:37.272Z,31.60
2019-02-23T06:00:07.648Z,32.10
2019-02-23T06:02:37.032Z,32.43
2019-02-23T06:05:07.173Z,31.70
2019-02-23T06:07:36.563Z,32.60
2019-02-23T06:10:07.932Z,33.13
2019-02-23T06:12:37.613Z,30.73
2019-02-23T06:15:09.519Z,29.37
2019-02-23T06:17:38.811Z,31.17
2019-02-23T06:20:09.727Z,30.93
2019-02-23T06:22:39.430Z,31.60
2019-02-23T06:25:09.759Z,31.77
2019-02-23T06:27:39.078Z,29.73
2019-02-23T06:30:10.225Z,30.13
2019-02-23T06:32:39.532Z,30.33
2019-02-23T06:35:09.425Z,30.03
2019-02-23T06:37:39.117Z,29.63
2019-02-23T06:40:08.861Z,29.07
2019-02-23T06:42:38.237Z,29.10
2019-02-23T06:45:08.414Z,29.97
2019-02-23T06:47:37.736Z,29.57
2019-02-23T06:50:07.481Z,30.23
2019-02-23T06:52:36.837Z,30.10
2019-02-23T06:55:06.217Z,30.63
2019-02-23T06:57:36.109Z,29.67
2019-02-23T07:00:06.460Z,30.67
2019-02-23T07:02:35.834Z,30.03
2019-02-23T07:05:05.625Z,31.33
2019-02-23T07:07:34.914Z,30.97
2019-02-23T07:10:04.473Z,30.70
2019-02-23T07:12:33.994Z,30.40
2019-02-23T07:15:03.335Z,30.97
2019-02-23T07:17:32.569Z,30.67
2019-02-23T07:20:01.769Z,30.97
2019-02-23T07:22:33.529Z,31.20
2019-02-23T07:25:02.292Z,31.10
2019-02-23T07:27:31.877Z,30.70
2019-02-23T07:30:01.428Z,29.93
2019-02-23T07:32:30.803Z,30.07
2019-02-23T07:35:03.708Z,29.30
2019-02-23T07:37:33.058Z,30.00
2019-02-23T07:40:05.210Z,29.73
2019-02-23T07:42:34.473Z,29.83
2019-02-23T07:45:04.519Z,28.47
2019-02-23T07:47:33.883Z,28.87
2019-02-23T07:50:03.182Z,28.33
2019-02-23T07:52:32.848Z,27.20
2019-02-23T07:55:02.165Z,28.30
2019-02-23T07:57:31.999Z,27.93
2019-02-23T08:00:01.341Z,24.23
2019-02-23T08:02:30.713Z,25.40
2019-02-23T08:05:01.670Z,24.70
2019-02-23T08:07:31.423Z,22.57
2019-02-23T08:10:31.994Z,24.00
2019-02-23T08:13:01.255Z,23.63
2019-02-23T08:15:30.600Z,25.23
2019-02-23T08:18:00.009Z,23.23
2019-02-23T08:20:30.290Z,23.53
2019-02-23T08:22:59.962Z,23.57
2019-02-23T08:25:29.395Z,24.13
2019-02-23T08:27:58.747Z,22.17
2019-02-23T08:30:28.032Z,22.93
2019-02-23T08:32:57.252Z,20.97
2019-02-23T08:35:26.514Z,22.23
2019-02-23T08:37:56.141Z,22.47
2019-02-23T08:40:25.479Z,23.33
2019-02-23T08:42:54.660Z,20.67
2019-02-23T08:45:28.339Z,20.27
2019-02-23T08:47:57.683Z,21.93
2019-02-23T08:50:28.425Z,22.27
2019-02-23T08:52:57.634Z,20.70
2019-02-23T08:55:27.035Z,22.47
2019-02-23T08:57:57.023Z,19.33
2019-02-23T09:00:26.380Z,19.87
2019-02-23T09:02:55.676Z,20.53
2019-02-23T09:05:25.852Z,18.77
2019-02-23T09:07:55.562Z,18.03
2019-02-23T09:10:24.945Z,18.43
2019-02-23T09:12:54.195Z,18.33
2019-02-23T09:15:23.387Z,17.67
2019-02-23T09:17:53.036Z,17.63
2019-02-23T09:20:29.303Z,16.40
2019-02-23T09:23:00.168Z,17.27
2019-02-23T09:25:25.112Z,16.87
2019-02-23T09:27:56.826Z,17.03
2019-02-23T09:30:26.431Z,17.03
2019-02-23T09:32:55.663Z,16.80
2019-02-23T09:35:25.004Z,16.30
2019-02-23T09:37:55.044Z,16.40
2019-02-23T09:40:24.352Z,17.40
2019-02-23T09:42:53.565Z,18.13
2019-02-23T09:45:23.260Z,17.63
2019-02-23T09:47:52.808Z,15.10
2019-02-23T09:50:22.131Z,15.17
2019-02-23T09:52:51.401Z,15.37
2019-02-23T09:55:20.688Z,15.87
2019-02-23T09:57:50.041Z,14.70
2019-02-23T10:00:19.384Z,14.47
2019-02-23T10:02:48.697Z,15.30
2019-02-23T10:05:17.998Z,14.13
2019-02-23T10:07:47.956Z,14.53
2019-02-23T10:10:17.572Z,13.77
2019-02-23T10:12:47.253Z,13.97
2019-02-23T10:15:16.601Z,13.53
2019-02-23T10:17:48.488Z,13.30
2019-02-23T10:20:17.682Z,13.30
2019-02-23T10:22:47.250Z,13.40
2019-02-23T10:25:16.709Z,12.27
2019-02-23T10:27:45.981Z,13.30
2019-02-23T10:30:15.946Z,12.23
2019-02-23T10:32:45.294Z,12.67
2019-02-23T10:35:18.020Z,12.90
2019-02-23T10:37:47.404Z,12.43
2019-02-23T10:40:17.166Z,11.30
2019-02-23T10:42:48.274Z,12.63
2019-02-23T10:45:21.076Z,11.83
2019-02-23T10:47:50.431Z,12.87
2019-02-23T10:50:22.478Z,12.90
2019-02-23T10:52:52.157Z,11.63
2019-02-23T10:55:23.876Z,11.67
2019-02-23T10:57:53.497Z,12.13
2019-02-23T11:00:23.832Z,11.50
2019-02-23T11:02:53.069Z,10.77
2019-02-23T11:05:22.536Z,10.80
2019-02-23T11:07:51.948Z,11.27
2019-02-23T11:10:25.411Z,11.70
2019-02-23T11:12:55.380Z,10.20
2019-02-23T11:15:28.786Z,10.73
2019-02-23T11:17:58.169Z,11.80
2019-02-23T11:20:31.868Z,10.77
2019-02-23T11:23:01.214Z,11.93
2019-02-23T11:25:30.900Z,11.53
2019-02-23T11:28:00.457Z,11.13
2019-02-23T11:30:29.869Z,11.53
2019-02-23T11:33:01.104Z,11.27
2019-02-23T11:35:30.579Z,10.47
2019-02-23T11:37:59.818Z,11.07
2019-02-23T11:40:29.202Z,10.20
2019-02-23T11:42:58.951Z,9.70
2019-02-23T11:45:30.828Z,10.37
2019-02-23T11:47:59.313Z,9.80
2019-02-23T11:50:28.996Z,10.50
2019-02-23T11:52:58.598Z,10.53
2019-02-23T11:55:28.187Z,10.80
2019-02-23T11:57:57.574Z,10.23
2019-02-23T12:00:26.981Z,10.17
2019-02-23T12:02:58.786Z,10.93
2019-02-23T12:05:28.125Z,11.00
2019-02-23T12:07:57.473Z,10.83
2019-02-23T12:10:26.878Z,10.73
2019-02-23T12:12:58.733Z,11.20
2019-02-23T12:15:30.875Z,10.47
2019-02-23T12:18:00.093Z,10.17
2019-02-23T12:20:30.077Z,10.37
2019-02-23T12:22:59.769Z,10.17
2019-02-23T12:25:29.125Z,10.40
2019-02-23T12:27:58.511Z,9.93
2019-02-23T12:30:27.858Z,8.90
2019-02-23T12:32:57.535Z,9.00
2019-02-23T12:35:26.919Z,9.47
2019-02-23T12:37:56.713Z,9.57
2019-02-23T12:40:26.067Z,9.80
2019-02-23T12:42:55.526Z,9.40
2019-02-23T12:45:24.999Z,9.77
2019-02-23T12:47:54.911Z,9.80
2019-02-23T12:50:26.909Z,9.83
2019-02-23T12:52:59.891Z,9.70
2019-02-23T12:55:30.728Z,10.63
2019-02-23T12:58:00.602Z,10.17
2019-02-23T13:00:30.026Z,10.73
2019-02-23T13:02:59.372Z,11.10
2019-02-23T13:05:31.442Z,12.43
2019-02-23T13:08:01.162Z,11.93
2019-02-23T13:10:32.479Z,11.47
2019-02-23T13:13:21.294Z,10.80
2019-02-23T13:16:10.506Z,11.27
2019-02-23T13:19:23.945Z,11.83
2019-02-23T13:22:39.734Z,12.70
2019-02-23T13:25:39.070Z,12.30
2019-02-23T13:28:38.754Z,12.10
2019-02-23T13:31:23.416Z,12.67
2019-02-23T13:34:49.926Z,12.47
2019-02-23T13:38:00.561Z,11.90
2019-02-23T13:41:17.396Z,11.57
2019-02-23T13:44:30.418Z,10.93
2019-02-23T13:47:09.969Z,10.90
2019-02-23T13:50:35.446Z,11.17
2019-02-23T13:53:30.130Z,10.97
2019-02-23T13:56:31.432Z,11.73
2019-02-23T13:59:57.018Z,11.60
2019-02-23T14:03:09.636Z,11.73
2019-02-23T14:06:09.656Z,11.23
2019-02-23T14:09:12.462Z,11.50
2019-02-23T14:12:12.826Z,10.80
2019-02-23T14:15:38.390Z,11.20
2019-02-23T14:19:04.988Z,12.00
2019-02-23T14:22:13.842Z,12.20
2019-02-23T14:25:23.466Z,11.57
2019-02-23T14:28:09.363Z,12.17
2019-02-23T14:31:44.153Z,12.10
2019-02-23T14:34:49.280Z,12.33
2019-02-23T14:37:45.671Z,12.07
2019-02-23T14:40:41.570Z,12.40
2019-02-23T14:43:56.712Z,12.43
2019-02-23T14:46:46.229Z,13.23
2019-02-23T14:50:02.636Z,12.37
2019-02-23T14:52:57.564Z,13.27
2019-02-23T14:56:00.259Z,12.87
2019-02-23T14:59:01.868Z,11.30
2019-02-23T15:01:51.276Z,11.23
2019-02-23T15:04:54.179Z,12.50
2019-02-23T15:08:10.491Z,11.87
2019-02-23T15:11:30.056Z,11.30
2019-02-23T15:14:35.632Z,11.53
2019-02-23T15:17:42.961Z,10.90
2019-02-23T15:20:44.039Z,11.90
2019-02-23T15:23:30.108Z,11.10
2019-02-23T15:26:41.152Z,11.23
2019-02-23T15:29:46.479Z,11.50
2019-02-23T15:32:28.152Z,10.50
2019-02-23T15:35:28.234Z,10.77
2019-02-23T15:38:24.838Z,10.40
2019-02-23T15:41:35.552Z,11.27
2019-02-23T15:44:42.112Z,11.20
2019-02-23T15:47:37.627Z,10.70
2019-02-23T15:50:12.886Z,11.03
2019-02-23T15:52:38.769Z,10.43
2019-02-23T15:55:08.438Z,10.27
2019-02-23T15:57:37.770Z,9.83
2019-02-23T16:00:07.589Z,10.13
2019-02-23T16:02:36.909Z,9.97
2019-02-23T16:05:06.625Z,9.77
2019-02-23T16:07:36.303Z,9.83
2019-02-23T16:10:06.064Z,9.73
2019-02-23T16:12:36.226Z,10.03
2019-02-23T16:15:05.924Z,10.37
2019-02-23T16:17:35.943Z,10.17
2019-02-23T16:20:07.601Z,9.83
2019-02-23T16:22:37.827Z,11.37
2019-02-23T16:25:07.317Z,10.67
2019-02-23T16:27:38.591Z,10.57
2019-02-23T16:30:08.078Z,10.50
2019-02-23T16:32:37.365Z,10.90
2019-02-23T16:35:06.811Z,10.93
2019-02-23T16:37:36.385Z,11.07
2019-02-23T16:40:05.984Z,11.33
2019-02-23T16:42:35.743Z,11.43
2019-02-23T16:45:05.700Z,11.60
2019-02-23T16:47:34.993Z,11.50
2019-02-23T16:50:04.430Z,11.50
2019-02-23T16:52:33.700Z,12.47
2019-02-23T16:55:03.038Z,11.00
2019-02-23T16:57:32.780Z,11.30
2019-02-23T17:00:02.231Z,11.87
2019-02-23T17:02:32.247Z,11.73
2019-02-23T17:05:05.106Z,12.07
2019-02-23T17:07:34.472Z,12.10
2019-02-23T17:10:03.919Z,12.33
2019-02-23T17:12:33.311Z,13.27
2019-02-23T17:15:02.581Z,12.63
2019-02-23T17:17:32.248Z,12.57
2019-02-23T17:20:01.694Z,14.00
2019-02-23T17:22:31.065Z,13.87
2019-02-23T17:25:00.461Z,13.57
2019-02-23T17:27:36.166Z,12.70
2019-02-23T17:30:01.139Z,13.07
2019-02-23T17:32:30.509Z,12.80
2019-02-23T17:34:59.919Z,13.87
2019-02-23T17:37:29.764Z,13.63
2019-02-23T17:39:59.442Z,14.07
2019-02-23T17:42:28.811Z,13.97
2019-02-23T17:44:58.098Z,13.20
2019-02-23T17:47:27.806Z,12.70
2019-02-23T17:49:57.370Z,13.23
2019-02-23T17:52:26.672Z,13.90
2019-02-23T17:54:58.171Z,13.97
2019-02-23T17:57:28.270Z,15.03
2019-02-23T17:59:57.823Z,15.00
2019-02-23T18:02:27.143Z,14.93
2019-02-23T18:04:56.544Z,15.53
2019-02-23T18:07:29.270Z,13.73
2019-02-23T18:09:58.888Z,14.30
2019-02-23T18:12:29.699Z,13.60
2019-02-23T18:14:59.185Z,13.17
2019-02-23T18:17:28.624Z,13.60
2019-02-23T18:19:58.249Z,13.63
2019-02-23T18:22:27.917Z,14.33
2019-02-23T18:24:57.146Z,15.37
2019-02-23T18:27:26.672Z,15.30
2019-02-23T18:29:56.035Z,16.00
2019-02-23T18:32:25.415Z,15.57
2019-02-23T18:34:54.776Z,14.53
2019-02-23T18:37:24.173Z,14.87
2019-02-23T18:39:53.647Z,13.33
2019-02-23T18:42:23.081Z,13.93
2019-02-23T18:44:52.301Z,13.70
2019-02-23T18:47:23.182Z,12.23
2019-02-23T18:49:52.926Z,13.87
2019-02-23T18:52:22.953Z,15.27
2019-02-23T18:54:55.872Z,14.90
2019-02-23T18:57:25.200Z,13.53
2019-02-23T18:59:54.569Z,13.83
2019-02-23T19:02:23.868Z,13.47
2019-02-23T19:04:54.189Z,12.23
2019-02-23T19:07:23.555Z,13.07
2019-02-23T19:09:55.969Z,12.37
2019-02-23T19:12:25.289Z,12.93
2019-02-23T19:14:54.600Z,12.73
2019-02-23T19:17:23.867Z,12.17
2019-02-23T19:19:53.229Z,12.23
2019-02-23T19:22:22.689Z,12.17
2019-02-23T19:24:52.036Z,11.53
2019-02-23T19:27:21.802Z,13.23
2019-02-23T19:29:51.317Z,12.20
2019-02-23T19:32:23.157Z,11.87
2019-02-23T19:34:57.102Z,11.97
2019-02-23T19:37:26.481Z,12.03
2019-02-23T19:39:56.173Z,12.83
2019-02-23T19:42:25.670Z,11.97
2019-02-23T19:44:57.812Z,12.40
2019-02-23T19:47:33.096Z,12.40
2019-02-23T19:50:09.606Z,13.03
2019-02-23T19:52:38.843Z,12.87
2019-02-23T19:55:09.801Z,12.87
2019-02-23T19:57:39.276Z,13.43
2019-02-23T20:00:09.567Z,12.53
2019-02-23T20:02:39.754Z,13.50
2019-02-23T20:05:09.766Z,13.60
2019-02-23T20:07:39.098Z,13.03
2019-02-23T20:10:09.670Z,14.03
2019-02-23T20:12:38.944Z,13.00
2019-02-23T20:15:08.336Z,12.90
2019-02-23T20:17:38.825Z,13.00
2019-02-23T20:20:08.806Z,13.00
2019-02-23T20:22:38.243Z,13.70
2019-02-23T20:25:07.955Z,13.57
2019-02-23T20:27:37.318Z,13.70
2019-02-23T20:30:07.442Z,13.10
2019-02-23T20:32:36.904Z,13.60
2019-02-23T20:35:06.973Z,13.87
2019-02-23T20:37:36.380Z,13.53
2019-02-23T20:40:26.884Z,13.40
2019-02-23T20:42:56.620Z,14.13
2019-02-23T20:45:25.978Z,13.90
2019-02-23T20:47:55.627Z,13.97
2019-02-23T20:50:25.066Z,13.87
2019-02-23T20:52:54.613Z,13.40
2019-02-23T20:55:24.060Z,13.90
2019-02-23T20:57:53.950Z,14.10
2019-02-23T21:00:23.313Z,14.07
2019-02-23T21:02:52.680Z,13.47
2019-02-23T21:05:22.097Z,13.50
2019-02-23T21:07:51.448Z,13.70
2019-02-23T21:10:20.836Z,14.47
2019-02-23T21:12:50.621Z,14.07
2019-02-23T21:15:20.197Z,13.97
2019-02-23T21:17:49.568Z,14.47
2019-02-23T21:20:19.306Z,14.43
2019-02-23T21:22:48.640Z,14.13
2019-02-23T21:25:18.288Z,13.80
2019-02-23T21:27:47.616Z,14.67
2019-02-23T21:30:17.193Z,14.60
2019-02-23T21:32:46.456Z,15.47
2019-02-23T21:35:16.451Z,14.37
2019-02-23T21:37:48.593Z,14.30
2019-02-23T21:40:17.939Z,15.03
2019-02-23T21:42:47.271Z,15.37
2019-02-23T21:45:16.623Z,15.83
2019-02-23T21:47:46.219Z,14.87
2019-02-23T21:50:15.909Z,14.73
2019-02-23T21:52:47.404Z,14.37
2019-02-23T21:55:16.485Z,14.87
2019-02-23T21:57:45.762Z,14.73
2019-02-23T22:00:15.034Z,14.30
2019-02-23T22:02:44.295Z,15.87
2019-02-23T22:05:13.605Z,15.13
2019-02-23T22:07:43.185Z,14.43
2019-02-23T22:10:12.786Z,14.63
2019-02-23T22:12:42.111Z,13.73
2019-02-23T22:15:11.537Z,13.33
2019-02-23T22:17:40.840Z,13.23
2019-02-23T22:20:10.142Z,13.10
2019-02-23T22:22:39.898Z,13.00
2019-02-23T22:25:09.543Z,13.53
2019-02-23T22:27:39.460Z,13.53
2019-02-23T22:30:08.875Z,13.43
2019-02-23T22:32:38.571Z,13.90
2019-02-23T22:35:07.925Z,13.13
2019-02-23T22:37:37.506Z,12.57
2019-02-23T22:40:07.048Z,12.97
2019-02-23T22:42:36.543Z,12.90
2019-02-23T22:45:06.627Z,12.77
2019-02-23T22:47:36.197Z,13.30
2019-02-23T22:50:05.780Z,12.60
2019-02-23T22:52:35.055Z,14.17
2019-02-23T22:55:04.781Z,13.10
2019-02-23T22:57:40.177Z,13.10
2019-02-23T23:00:06.331Z,12.50
2019-02-23T23:02:35.663Z,13.40
2019-02-23T23:05:05.345Z,13.43
2019-02-23T23:07:34.745Z,12.77
2019-02-23T23:10:04.629Z,13.23
2019-02-23T23:12:34.009Z,13.63
2019-02-23T23:15:03.270Z,13.03
2019-02-23T23:17:32.508Z,13.07
2019-02-23T23:20:02.181Z,12.83
2019-02-23T23:22:31.654Z,13.07
2019-02-23T23:25:01.029Z,13.27
2019-02-23T23:27:30.710Z,13.27
2019-02-23T23:30:00.089Z,11.87
2019-02-23T23:32:29.771Z,12.97
2019-02-23T23:34:59.099Z,12.13
2019-02-23T23:37:28.453Z,12.50
2019-02-23T23:39:58.104Z,12.77
2019-02-23T23:42:27.390Z,12.70
2019-02-23T23:44:56.612Z,12.20
2019-02-23T23:47:25.883Z,12.70
2019-02-23T23:49:55.296Z,12.80
2019-02-23T23:52:24.992Z,12.57
2019-02-23T23:54:54.247Z,13.03
2019-02-23T23:57:23.468Z,12.30
2019-02-23T23:59:52.736Z,12.93
